sensor_id;sensor_type;location;lat;lon;timestamp;temperature;humidity
70839;DHT22;58464;52.298;4.852;2022-09-24T00:00:43;14.57;91.72
70839;DHT22;58464;52.298;4.852;2022-09-24T00:03:08;14.56;91.74
70839;DHT22;58464;52.298;4.852;2022-09-24T00:05:38;14.60;91.92
70839;DHT22;58464;52.298;4.852;2022-09-24T00:08:05;14.59;91.90
70839;DHT22;58464;52.298;4.852;2022-09-24T00:10:38;14.60;91.98
70839;DHT22;58464;52.298;4.852;2022-09-24T00:13:05;14.60;91.63
70839;DHT22;58464;52.298;4.852;2022-09-24T00:15:39;14.63;91.60
70839;DHT22;58464;52.298;4.852;2022-09-24T00:18:05;14.61;91.06
70839;DHT22;58464;52.298;4.852;2022-09-24T00:20:33;14.61;91.53
70839;DHT22;58464;52.298;4.852;2022-09-24T00:22:59;14.60;91.65
70839;DHT22;58464;52.298;4.852;2022-09-24T00:25:25;14.60;91.86
70839;DHT22;58464;52.298;4.852;2022-09-24T00:28:08;14.55;91.82
70839;DHT22;58464;52.298;4.852;2022-09-24T00:30:37;14.63;91.70
70839;DHT22;58464;52.298;4.852;2022-09-24T00:33:03;14.55;91.56
70839;DHT22;58464;52.298;4.852;2022-09-24T00:35:30;14.47;91.87
70839;DHT22;58464;52.298;4.852;2022-09-24T00:37:56;14.46;91.82
70839;DHT22;58464;52.298;4.852;2022-09-24T00:40:30;14.43;92.09
70839;DHT22;58464;52.298;4.852;2022-09-24T00:42:56;14.46;92.08
70839;DHT22;58464;52.298;4.852;2022-09-24T00:45:22;14.41;91.83
70839;DHT22;58464;52.298;4.852;2022-09-24T00:47:49;14.40;92.05
70839;DHT22;58464;52.298;4.852;2022-09-24T00:50:29;14.44;92.11
70839;DHT22;58464;52.298;4.852;2022-09-24T00:55:22;14.43;92.01
70839;DHT22;58464;52.298;4.852;2022-09-24T00:57:51;14.47;92.26
70839;DHT22;58464;52.298;4.852;2022-09-24T01:00:17;14.41;91.93
70839;DHT22;58464;52.298;4.852;2022-09-24T01:02:45;14.44;92.08
70839;DHT22;58464;52.298;4.852;2022-09-24T01:05:12;14.47;92.01
70839;DHT22;58464;52.298;4.852;2022-09-24T01:07:39;14.43;92.06
70839;DHT22;58464;52.298;4.852;2022-09-24T01:10:05;14.41;92.24
70839;DHT22;58464;52.298;4.852;2022-09-24T01:12:37;14.44;92.26
70839;DHT22;58464;52.298;4.852;2022-09-24T01:21:49;14.47;92.42
70839;DHT22;58464;52.298;4.852;2022-09-24T01:26:43;14.51;92.41
70839;DHT22;58464;52.298;4.852;2022-09-24T01:32:14;14.51;92.14
70839;DHT22;58464;52.298;4.852;2022-09-24T01:34:48;14.49;92.13
70839;DHT22;58464;52.298;4.852;2022-09-24T01:37:16;14.55;92.06
70839;DHT22;58464;52.298;4.852;2022-09-24T01:39:44;14.47;91.91
70839;DHT22;58464;52.298;4.852;2022-09-24T01:42:11;14.47;92.10
70839;DHT22;58464;52.298;4.852;2022-09-24T01:44:37;14.47;92.09
70839;DHT22;58464;52.298;4.852;2022-09-24T01:47:07;14.49;91.84
70839;DHT22;58464;52.298;4.852;2022-09-24T01:49:33;14.43;91.93
70839;DHT22;58464;52.298;4.852;2022-09-24T01:52:02;14.47;91.95
70839;DHT22;58464;52.298;4.852;2022-09-24T01:54:42;14.47;91.61
70839;DHT22;58464;52.298;4.852;2022-09-24T01:57:17;14.49;91.83
70839;DHT22;58464;52.298;4.852;2022-09-24T01:59:51;14.43;91.79
70839;DHT22;58464;52.298;4.852;2022-09-24T02:02:27;14.37;91.65
70839;DHT22;58464;52.298;4.852;2022-09-24T02:05:06;14.39;91.94
70839;DHT22;58464;52.298;4.852;2022-09-24T02:07:52;14.40;92.07
70839;DHT22;58464;52.298;4.852;2022-09-24T02:10:20;14.37;91.85
70839;DHT22;58464;52.298;4.852;2022-09-24T02:12:49;14.40;91.59
70839;DHT22;58464;52.298;4.852;2022-09-24T02:15:34;14.41;91.98
70839;DHT22;58464;52.298;4.852;2022-09-24T02:18:03;14.39;91.90
70839;DHT22;58464;52.298;4.852;2022-09-24T02:20:31;14.43;91.98
70839;DHT22;58464;52.298;4.852;2022-09-24T02:22:59;14.39;92.02
70839;DHT22;58464;52.298;4.852;2022-09-24T02:25:46;14.40;91.97
70839;DHT22;58464;52.298;4.852;2022-09-24T02:28:15;14.37;91.96
70839;DHT22;58464;52.298;4.852;2022-09-24T02:30:45;14.32;91.77
70839;DHT22;58464;52.298;4.852;2022-09-24T02:33:14;14.40;91.59
70839;DHT22;58464;52.298;4.852;2022-09-24T02:35:58;14.40;91.69
70839;DHT22;58464;52.298;4.852;2022-09-24T02:38:25;14.41;91.89
70839;DHT22;58464;52.298;4.852;2022-09-24T02:40:50;14.36;91.78
70839;DHT22;58464;52.298;4.852;2022-09-24T02:43:17;14.37;91.77
70839;DHT22;58464;52.298;4.852;2022-09-24T02:45:42;14.34;91.91
70839;DHT22;58464;52.298;4.852;2022-09-24T02:48:08;14.32;91.73
70839;DHT22;58464;52.298;4.852;2022-09-24T02:50:34;14.33;92.00
70839;DHT22;58464;52.298;4.852;2022-09-24T02:52:59;14.33;92.13
70839;DHT22;58464;52.298;4.852;2022-09-24T02:55:25;14.40;92.22
70839;DHT22;58464;52.298;4.852;2022-09-24T02:57:51;14.34;92.23
70839;DHT22;58464;52.298;4.852;2022-09-24T03:00:17;14.36;92.14
70839;DHT22;58464;52.298;4.852;2022-09-24T03:02:45;14.43;92.18
70839;DHT22;58464;52.298;4.852;2022-09-24T03:05:12;14.39;92.29
70839;DHT22;58464;52.298;4.852;2022-09-24T03:07:37;14.37;92.40
70839;DHT22;58464;52.298;4.852;2022-09-24T03:10:03;14.51;92.50
70839;DHT22;58464;52.298;4.852;2022-09-24T03:12:29;14.40;92.23
70839;DHT22;58464;52.298;4.852;2022-09-24T03:14:54;14.43;92.45
70839;DHT22;58464;52.298;4.852;2022-09-24T03:17:19;14.37;92.16
70839;DHT22;58464;52.298;4.852;2022-09-24T03:19:45;14.30;92.27
70839;DHT22;58464;52.298;4.852;2022-09-24T03:22:10;14.30;92.64
70839;DHT22;58464;52.298;4.852;2022-09-24T03:24:36;14.26;92.47
70839;DHT22;58464;52.298;4.852;2022-09-24T03:27:01;14.28;92.69
70839;DHT22;58464;52.298;4.852;2022-09-24T03:29:26;14.26;92.52
70839;DHT22;58464;52.298;4.852;2022-09-24T03:32:10;14.25;92.59
70839;DHT22;58464;52.298;4.852;2022-09-24T03:34:35;14.28;92.38
70839;DHT22;58464;52.298;4.852;2022-09-24T03:37:01;14.22;92.66
70839;DHT22;58464;52.298;4.852;2022-09-24T03:39:26;14.18;92.68
70839;DHT22;58464;52.298;4.852;2022-09-24T03:41:52;14.19;92.53
70839;DHT22;58464;52.298;4.852;2022-09-24T03:44:17;14.23;92.11
70839;DHT22;58464;52.298;4.852;2022-09-24T03:46:42;14.25;92.57
70839;DHT22;58464;52.298;4.852;2022-09-24T03:49:08;14.26;92.39
70839;DHT22;58464;52.298;4.852;2022-09-24T03:51:33;14.28;92.32
70839;DHT22;58464;52.298;4.852;2022-09-24T03:53:59;14.29;92.09
70839;DHT22;58464;52.298;4.852;2022-09-24T03:56:24;14.28;92.20
70839;DHT22;58464;52.298;4.852;2022-09-24T03:58:51;14.30;92.41
70839;DHT22;58464;52.298;4.852;2022-09-24T04:01:16;14.30;91.92
70839;DHT22;58464;52.298;4.852;2022-09-24T04:03:44;14.25;92.18
70839;DHT22;58464;52.298;4.852;2022-09-24T04:06:10;14.30;92.64
70839;DHT22;58464;52.298;4.852;2022-09-24T04:08:35;14.26;92.36
70839;DHT22;58464;52.298;4.852;2022-09-24T04:11:00;14.43;92.70
70839;DHT22;58464;52.298;4.852;2022-09-24T04:13:26;14.34;92.00
70839;DHT22;58464;52.298;4.852;2022-09-24T04:15:52;14.33;92.11
70839;DHT22;58464;52.298;4.852;2022-09-24T04:18:17;14.41;92.05
70839;DHT22;58464;52.298;4.852;2022-09-24T04:20:43;14.40;92.25
70839;DHT22;58464;52.298;4.852;2022-09-24T04:23:10;14.63;91.11
70839;DHT22;58464;52.298;4.852;2022-09-24T04:25:35;14.66;91.09
70839;DHT22;58464;52.298;4.852;2022-09-24T04:28:04;14.59;91.20
70839;DHT22;58464;52.298;4.852;2022-09-24T04:30:31;14.61;91.48
70839;DHT22;58464;52.298;4.852;2022-09-24T04:32:57;14.73;90.75
70839;DHT22;58464;52.298;4.852;2022-09-24T04:35:30;14.74;91.00
70839;DHT22;58464;52.298;4.852;2022-09-24T04:37:56;14.77;90.58
70839;DHT22;58464;52.298;4.852;2022-09-24T04:40:22;14.70;90.95
70839;DHT22;58464;52.298;4.852;2022-09-24T04:42:47;14.71;90.44
70839;DHT22;58464;52.298;4.852;2022-09-24T04:45:14;14.61;90.80
70839;DHT22;58464;52.298;4.852;2022-09-24T04:47:42;14.57;91.06
70839;DHT22;58464;52.298;4.852;2022-09-24T04:50:09;14.63;90.34
70839;DHT22;58464;52.298;4.852;2022-09-24T04:52:35;14.59;90.12
70839;DHT22;58464;52.298;4.852;2022-09-24T04:55:01;14.63;90.53
70839;DHT22;58464;52.298;4.852;2022-09-24T04:57:28;14.56;90.96
70839;DHT22;58464;52.298;4.852;2022-09-24T05:00:01;14.50;91.30
70839;DHT22;58464;52.298;4.852;2022-09-24T05:02:27;14.53;91.09
70839;DHT22;58464;52.298;4.852;2022-09-24T05:04:53;14.47;91.66
70839;DHT22;58464;52.298;4.852;2022-09-24T05:07:18;14.49;91.60
70839;DHT22;58464;52.298;4.852;2022-09-24T05:09:43;14.46;91.47
70839;DHT22;58464;52.298;4.852;2022-09-24T05:12:09;14.53;91.07
70839;DHT22;58464;52.298;4.852;2022-09-24T05:14:34;14.53;91.29
70839;DHT22;58464;52.298;4.852;2022-09-24T05:17:00;14.55;91.03
70839;DHT22;58464;52.298;4.852;2022-09-24T05:19:25;14.51;91.14
70839;DHT22;58464;52.298;4.852;2022-09-24T05:21:50;14.55;91.00
70839;DHT22;58464;52.298;4.852;2022-09-24T05:24:16;14.46;91.35
70839;DHT22;58464;52.298;4.852;2022-09-24T05:26:41;14.46;91.29
70839;DHT22;58464;52.298;4.852;2022-09-24T05:29:25;14.49;91.04
70839;DHT22;58464;52.298;4.852;2022-09-24T05:31:50;14.46;91.21
70839;DHT22;58464;52.298;4.852;2022-09-24T05:34:16;14.46;91.25
70839;DHT22;58464;52.298;4.852;2022-09-24T05:36:42;14.40;91.09
70839;DHT22;58464;52.298;4.852;2022-09-24T05:39:09;14.46;91.05
70839;DHT22;58464;52.298;4.852;2022-09-24T05:41:35;14.36;91.74
70839;DHT22;58464;52.298;4.852;2022-09-24T05:44:01;14.34;91.74
70839;DHT22;58464;52.298;4.852;2022-09-24T05:46:27;14.34;91.59
70839;DHT22;58464;52.298;4.852;2022-09-24T05:48:53;14.44;90.88
70839;DHT22;58464;52.298;4.852;2022-09-24T05:51:18;14.47;90.83
70839;DHT22;58464;52.298;4.852;2022-09-24T05:53:44;14.41;90.42
70839;DHT22;58464;52.298;4.852;2022-09-24T05:56:09;14.33;90.51
70839;DHT22;58464;52.298;4.852;2022-09-24T05:58:35;14.32;90.20
70839;DHT22;58464;52.298;4.852;2022-09-24T06:01:00;14.41;90.11
70839;DHT22;58464;52.298;4.852;2022-09-24T06:03:27;14.34;90.38
70839;DHT22;58464;52.298;4.852;2022-09-24T06:05:54;14.39;90.02
70839;DHT22;58464;52.298;4.852;2022-09-24T06:08:30;14.33;90.37
70839;DHT22;58464;52.298;4.852;2022-09-24T06:11:01;14.32;90.05
70839;DHT22;58464;52.298;4.852;2022-09-24T06:13:27;14.29;90.23
70839;DHT22;58464;52.298;4.852;2022-09-24T06:15:59;14.30;90.45
70839;DHT22;58464;52.298;4.852;2022-09-24T06:18:24;14.30;89.97
70839;DHT22;58464;52.298;4.852;2022-09-24T06:20:50;14.29;89.72
70839;DHT22;58464;52.298;4.852;2022-09-24T06:23:15;14.26;89.47
70839;DHT22;58464;52.298;4.852;2022-09-24T06:25:40;14.19;89.71
70839;DHT22;58464;52.298;4.852;2022-09-24T06:28:06;14.15;89.57
70839;DHT22;58464;52.298;4.852;2022-09-24T06:30:34;14.16;89.12
70839;DHT22;58464;52.298;4.852;2022-09-24T06:33:12;14.22;88.76
70839;DHT22;58464;52.298;4.852;2022-09-24T06:35:40;14.18;89.09
70839;DHT22;58464;52.298;4.852;2022-09-24T06:38:08;14.15;89.06
70839;DHT22;58464;52.298;4.852;2022-09-24T06:40:34;14.15;89.66
70839;DHT22;58464;52.298;4.852;2022-09-24T06:43:00;14.19;88.61
70839;DHT22;58464;52.298;4.852;2022-09-24T06:45:26;14.23;88.82
70839;DHT22;58464;52.298;4.852;2022-09-24T06:47:52;14.25;88.76
70839;DHT22;58464;52.298;4.852;2022-09-24T06:50:18;14.26;88.28
70839;DHT22;58464;52.298;4.852;2022-09-24T06:52:44;14.32;88.23
70839;DHT22;58464;52.298;4.852;2022-09-24T06:55:09;14.28;88.16
70839;DHT22;58464;52.298;4.852;2022-09-24T06:57:35;14.32;87.78
70839;DHT22;58464;52.298;4.852;2022-09-24T07:00:00;14.34;88.06
70839;DHT22;58464;52.298;4.852;2022-09-24T07:02:26;14.32;87.06
70839;DHT22;58464;52.298;4.852;2022-09-24T07:04:52;14.41;86.64
70839;DHT22;58464;52.298;4.852;2022-09-24T07:07:18;14.39;86.57
70839;DHT22;58464;52.298;4.852;2022-09-24T07:10:00;14.41;86.34
70839;DHT22;58464;52.298;4.852;2022-09-24T07:12:31;14.43;86.08
70839;DHT22;58464;52.298;4.852;2022-09-24T07:14:57;14.50;86.22
70839;DHT22;58464;52.298;4.852;2022-09-24T07:17:27;14.50;86.32
70839;DHT22;58464;52.298;4.852;2022-09-24T07:19:53;14.53;86.03
70839;DHT22;58464;52.298;4.852;2022-09-24T07:22:20;14.63;85.34
70839;DHT22;58464;52.298;4.852;2022-09-24T07:24:46;14.59;84.77
70839;DHT22;58464;52.298;4.852;2022-09-24T07:27:13;14.66;84.64
70839;DHT22;58464;52.298;4.852;2022-09-24T07:29:38;14.70;84.88
70839;DHT22;58464;52.298;4.852;2022-09-24T07:32:04;14.73;84.33
70839;DHT22;58464;52.298;4.852;2022-09-24T07:34:30;14.74;84.29
70839;DHT22;58464;52.298;4.852;2022-09-24T07:36:56;14.71;83.91
70839;DHT22;58464;52.298;4.852;2022-09-24T07:39:23;14.74;83.46
70839;DHT22;58464;52.298;4.852;2022-09-24T07:41:48;14.80;83.75
70839;DHT22;58464;52.298;4.852;2022-09-24T07:44:19;14.77;83.98
70839;DHT22;58464;52.298;4.852;2022-09-24T07:46:54;14.74;84.18
70839;DHT22;58464;52.298;4.852;2022-09-24T07:49:20;14.80;83.67
70839;DHT22;58464;52.298;4.852;2022-09-24T07:51:47;14.76;83.88
70839;DHT22;58464;52.298;4.852;2022-09-24T07:54:12;14.76;83.57
70839;DHT22;58464;52.298;4.852;2022-09-24T07:56:38;14.77;84.00
70839;DHT22;58464;52.298;4.852;2022-09-24T07:59:04;14.78;83.74
70839;DHT22;58464;52.298;4.852;2022-09-24T08:01:35;14.76;83.72
70839;DHT22;58464;52.298;4.852;2022-09-24T08:04:01;14.81;83.36
70839;DHT22;58464;52.298;4.852;2022-09-24T08:06:28;14.83;83.37
70839;DHT22;58464;52.298;4.852;2022-09-24T08:08:56;14.77;82.78
70839;DHT22;58464;52.298;4.852;2022-09-24T08:11:22;14.74;82.95
70839;DHT22;58464;52.298;4.852;2022-09-24T08:13:47;14.71;83.42
70839;DHT22;58464;52.298;4.852;2022-09-24T08:16:13;14.80;82.71
70839;DHT22;58464;52.298;4.852;2022-09-24T08:18:42;14.70;82.81
70839;DHT22;58464;52.298;4.852;2022-09-24T08:21:09;14.77;83.02
70839;DHT22;58464;52.298;4.852;2022-09-24T08:23:36;14.80;82.97
70839;DHT22;58464;52.298;4.852;2022-09-24T08:26:02;14.76;82.57
70839;DHT22;58464;52.298;4.852;2022-09-24T08:28:28;14.84;82.59
70839;DHT22;58464;52.298;4.852;2022-09-24T08:31:00;14.91;82.10
70839;DHT22;58464;52.298;4.852;2022-09-24T08:33:27;14.84;82.13
70839;DHT22;58464;52.298;4.852;2022-09-24T08:35:53;14.94;82.12
70839;DHT22;58464;52.298;4.852;2022-09-24T08:38:18;14.88;81.76
70839;DHT22;58464;52.298;4.852;2022-09-24T08:46:27;14.98;81.75
70839;DHT22;58464;52.298;4.852;2022-09-24T08:49:17;14.91;80.97
70839;DHT22;58464;52.298;4.852;2022-09-24T08:54:37;15.05;80.57
70839;DHT22;58464;52.298;4.852;2022-09-24T08:57:10;15.04;80.27
70839;DHT22;58464;52.298;4.852;2022-09-24T08:59:38;15.12;80.16
70839;DHT22;58464;52.298;4.852;2022-09-24T09:08:18;15.14;79.71
70839;DHT22;58464;52.298;4.852;2022-09-24T09:10:47;15.15;79.39
70839;DHT22;58464;52.298;4.852;2022-09-24T09:13:28;15.17;79.43
70839;DHT22;58464;52.298;4.852;2022-09-24T09:16:04;15.14;79.87
70839;DHT22;58464;52.298;4.852;2022-09-24T09:21:15;15.19;79.90
70839;DHT22;58464;52.298;4.852;2022-09-24T09:23:51;15.18;78.80
70839;DHT22;58464;52.298;4.852;2022-09-24T09:26:18;15.15;79.51
70839;DHT22;58464;52.298;4.852;2022-09-24T09:28:45;15.18;78.83
70839;DHT22;58464;52.298;4.852;2022-09-24T09:31:43;15.11;79.81
70839;DHT22;58464;52.298;4.852;2022-09-24T09:34:29;15.14;79.54
70839;DHT22;58464;52.298;4.852;2022-09-24T09:37:18;15.19;79.45
70839;DHT22;58464;52.298;4.852;2022-09-24T09:42:30;15.25;78.20
70839;DHT22;58464;52.298;4.852;2022-09-24T09:48:03;15.34;77.95
70839;DHT22;58464;52.298;4.852;2022-09-24T09:50:49;15.29;78.25
70839;DHT22;58464;52.298;4.852;2022-09-24T09:53:26;15.32;77.41
70839;DHT22;58464;52.298;4.852;2022-09-24T09:56:09;15.35;77.53
70839;DHT22;58464;52.298;4.852;2022-09-24T09:58:36;15.39;77.61
70839;DHT22;58464;52.298;4.852;2022-09-24T10:01:06;15.39;77.49
70839;DHT22;58464;52.298;4.852;2022-09-24T10:03:45;15.38;77.61
70839;DHT22;58464;52.298;4.852;2022-09-24T10:06:30;15.42;77.49
70839;DHT22;58464;52.298;4.852;2022-09-24T10:09:15;15.50;76.65
70839;DHT22;58464;52.298;4.852;2022-09-24T10:11:41;15.46;76.64
70839;DHT22;58464;52.298;4.852;2022-09-24T10:14:14;15.50;77.06
70839;DHT22;58464;52.298;4.852;2022-09-24T10:16:46;15.55;77.02
70839;DHT22;58464;52.298;4.852;2022-09-24T10:19:27;15.66;76.66
70839;DHT22;58464;52.298;4.852;2022-09-24T10:21:54;15.63;76.50
70839;DHT22;58464;52.298;4.852;2022-09-24T10:24:24;15.62;75.90
70839;DHT22;58464;52.298;4.852;2022-09-24T10:26:51;15.63;75.90
70839;DHT22;58464;52.298;4.852;2022-09-24T10:32:25;15.60;75.49
70839;DHT22;58464;52.298;4.852;2022-09-24T10:34:59;15.63;75.52
70839;DHT22;58464;52.298;4.852;2022-09-24T10:37:26;15.69;75.68
70839;DHT22;58464;52.298;4.852;2022-09-24T10:40:11;15.69;74.79
70839;DHT22;58464;52.298;4.852;2022-09-24T10:42:37;15.82;73.62
70839;DHT22;58464;52.298;4.852;2022-09-24T10:45:05;15.79;73.03
70839;DHT22;58464;52.298;4.852;2022-09-24T10:47:43;15.74;73.23
70839;DHT22;58464;52.298;4.852;2022-09-24T10:55:33;15.79;73.12
70839;DHT22;58464;52.298;4.852;2022-09-24T11:01:07;15.97;72.30
70839;DHT22;58464;52.298;4.852;2022-09-24T11:36:53;16.41;69.55
70839;DHT22;58464;52.298;4.852;2022-09-24T11:45:03;16.55;70.14
70839;DHT22;58464;52.298;4.852;2022-09-24T11:53:07;16.73;69.23
70839;DHT22;58464;52.298;4.852;2022-09-24T11:56:08;16.83;70.11
70839;DHT22;58464;52.298;4.852;2022-09-24T11:58:57;16.89;69.78
70839;DHT22;58464;52.298;4.852;2022-09-24T12:01:30;16.97;68.69
70839;DHT22;58464;52.298;4.852;2022-09-24T12:07:01;16.87;68.84
70839;DHT22;58464;52.298;4.852;2022-09-24T12:09:38;17.15;68.05
70839;DHT22;58464;52.298;4.852;2022-09-24T12:12:08;16.86;67.30
70839;DHT22;58464;52.298;4.852;2022-09-24T12:17:27;16.93;66.42
70839;DHT22;58464;52.298;4.852;2022-09-24T12:19:59;17.02;66.92
70839;DHT22;58464;52.298;4.852;2022-09-24T12:22:26;17.28;65.92
70839;DHT22;58464;52.298;4.852;2022-09-24T12:24:55;17.06;65.78
70839;DHT22;58464;52.298;4.852;2022-09-24T12:27:33;17.03;66.34
70839;DHT22;58464;52.298;4.852;2022-09-24T12:32:59;17.12;65.92
70839;DHT22;58464;52.298;4.852;2022-09-24T12:39:01;17.33;65.01
70839;DHT22;58464;52.298;4.852;2022-09-24T12:41:33;17.31;64.80
70839;DHT22;58464;52.298;4.852;2022-09-24T12:46:44;17.60;64.34
70839;DHT22;58464;52.298;4.852;2022-09-24T12:49:34;17.46;63.09
70839;DHT22;58464;52.298;4.852;2022-09-24T12:52:03;17.37;63.42
70839;DHT22;58464;52.298;4.852;2022-09-24T12:54:39;17.27;62.64
70839;DHT22;58464;52.298;4.852;2022-09-24T13:04:49;17.41;61.51
70839;DHT22;58464;52.298;4.852;2022-09-24T13:09:56;17.47;61.76
70839;DHT22;58464;52.298;4.852;2022-09-24T13:12:32;17.55;62.14
70839;DHT22;58464;52.298;4.852;2022-09-24T13:15:05;17.48;62.23
70839;DHT22;58464;52.298;4.852;2022-09-24T13:17:33;17.51;62.17
70839;DHT22;58464;52.298;4.852;2022-09-24T13:20:05;17.31;62.98
70839;DHT22;58464;52.298;4.852;2022-09-24T13:22:33;17.48;63.00
70839;DHT22;58464;52.298;4.852;2022-09-24T13:33:03;17.54;62.75
70839;DHT22;58464;52.298;4.852;2022-09-24T13:35:33;17.51;62.04
70839;DHT22;58464;52.298;4.852;2022-09-24T13:38:14;17.53;60.82
70839;DHT22;58464;52.298;4.852;2022-09-24T13:40:49;17.74;60.88
70839;DHT22;58464;52.298;4.852;2022-09-24T13:43:24;17.65;60.52
70839;DHT22;58464;52.298;4.852;2022-09-24T13:45:54;17.70;60.62
70839;DHT22;58464;52.298;4.852;2022-09-24T13:48:37;17.92;59.71
70839;DHT22;58464;52.298;4.852;2022-09-24T13:51:06;18.06;59.37
70839;DHT22;58464;52.298;4.852;2022-09-24T13:53:52;18.02;59.30
70839;DHT22;58464;52.298;4.852;2022-09-24T13:56:20;17.99;59.33
70839;DHT22;58464;52.298;4.852;2022-09-24T13:58:46;17.86;59.86
70839;DHT22;58464;52.298;4.852;2022-09-24T14:01:18;17.74;60.74
70839;DHT22;58464;52.298;4.852;2022-09-24T14:03:56;17.61;60.82
70839;DHT22;58464;52.298;4.852;2022-09-24T14:06:36;17.38;61.21
70839;DHT22;58464;52.298;4.852;2022-09-24T14:09:32;17.33;61.01
70839;DHT22;58464;52.298;4.852;2022-09-24T14:12:01;17.44;61.32
70839;DHT22;58464;52.298;4.852;2022-09-24T14:14:29;17.43;61.50
70839;DHT22;58464;52.298;4.852;2022-09-24T14:17:10;17.40;61.27
70839;DHT22;58464;52.298;4.852;2022-09-24T14:19:39;17.17;62.56
70839;DHT22;58464;52.298;4.852;2022-09-24T14:22:28;17.15;62.61
70839;DHT22;58464;52.298;4.852;2022-09-24T14:25:08;17.20;62.82
70839;DHT22;58464;52.298;4.852;2022-09-24T14:27:42;17.20;62.63
70839;DHT22;58464;52.298;4.852;2022-09-24T14:30:19;17.16;62.71
70839;DHT22;58464;52.298;4.852;2022-09-24T14:32:52;17.10;63.42
70839;DHT22;58464;52.298;4.852;2022-09-24T14:35:24;17.16;63.33
70839;DHT22;58464;52.298;4.852;2022-09-24T14:37:53;17.16;63.02
70839;DHT22;58464;52.298;4.852;2022-09-24T14:40:22;17.27;63.05
70839;DHT22;58464;52.298;4.852;2022-09-24T14:42:54;17.57;62.59
70839;DHT22;58464;52.298;4.852;2022-09-24T14:45:23;17.73;61.99
70839;DHT22;58464;52.298;4.852;2022-09-24T14:48:03;17.48;61.61
70839;DHT22;58464;52.298;4.852;2022-09-24T14:50:39;17.34;62.05
70839;DHT22;58464;52.298;4.852;2022-09-24T14:55:43;17.33;61.51
70839;DHT22;58464;52.298;4.852;2022-09-24T15:01:21;17.37;61.50
70839;DHT22;58464;52.298;4.852;2022-09-24T15:03:56;17.43;60.94
70839;DHT22;58464;52.298;4.852;2022-09-24T15:06:28;17.46;60.12
70839;DHT22;58464;52.298;4.852;2022-09-24T15:08:58;17.89;59.27
70839;DHT22;58464;52.298;4.852;2022-09-24T15:11:26;18.33;58.00
70839;DHT22;58464;52.298;4.852;2022-09-24T15:14:12;18.24;57.92
70839;DHT22;58464;52.298;4.852;2022-09-24T15:16:42;18.12;58.44
70839;DHT22;58464;52.298;4.852;2022-09-24T15:19:24;18.28;56.96
70839;DHT22;58464;52.298;4.852;2022-09-24T15:21:56;17.88;58.14
70839;DHT22;58464;52.298;4.852;2022-09-24T15:24:22;18.95;55.55
70839;DHT22;58464;52.298;4.852;2022-09-24T15:27:04;18.54;55.54
70839;DHT22;58464;52.298;4.852;2022-09-24T15:29:30;18.12;56.93
70839;DHT22;58464;52.298;4.852;2022-09-24T15:31:56;17.74;57.54
70839;DHT22;58464;52.298;4.852;2022-09-24T15:34:24;18.09;56.91
70839;DHT22;58464;52.298;4.852;2022-09-24T15:36:54;18.09;57.25
70839;DHT22;58464;52.298;4.852;2022-09-24T15:39:24;17.85;58.42
70839;DHT22;58464;52.298;4.852;2022-09-24T15:41:50;17.84;59.38
70839;DHT22;58464;52.298;4.852;2022-09-24T15:44:23;17.65;59.23
70839;DHT22;58464;52.298;4.852;2022-09-24T15:46:51;17.65;60.08
70839;DHT22;58464;52.298;4.852;2022-09-24T15:49:19;17.74;60.16
70839;DHT22;58464;52.298;4.852;2022-09-24T15:52:01;18.50;58.57
70839;DHT22;58464;52.298;4.852;2022-09-24T15:54:30;18.50;59.00
70839;DHT22;58464;52.298;4.852;2022-09-24T15:56:56;18.88;58.17
70839;DHT22;58464;52.298;4.852;2022-09-24T15:59:21;19.19;56.37
70839;DHT22;58464;52.298;4.852;2022-09-24T16:01:52;19.73;55.47
70839;DHT22;58464;52.298;4.852;2022-09-24T16:04:18;19.65;54.43
70839;DHT22;58464;52.298;4.852;2022-09-24T16:06:44;19.77;53.56
70839;DHT22;58464;52.298;4.852;2022-09-24T16:09:10;19.66;53.24
70839;DHT22;58464;52.298;4.852;2022-09-24T16:11:35;19.22;54.87
70839;DHT22;58464;52.298;4.852;2022-09-24T16:14:01;19.36;54.88
70839;DHT22;58464;52.298;4.852;2022-09-24T16:16:26;19.19;54.81
70839;DHT22;58464;52.298;4.852;2022-09-24T16:18:52;19.38;54.19
70839;DHT22;58464;52.298;4.852;2022-09-24T16:21:17;19.87;53.32
70839;DHT22;58464;52.298;4.852;2022-09-24T16:23:43;20.04;52.90
70839;DHT22;58464;52.298;4.852;2022-09-24T16:26:08;20.25;52.23
70839;DHT22;58464;52.298;4.852;2022-09-24T16:28:35;20.07;52.74
70839;DHT22;58464;52.298;4.852;2022-09-24T16:31:05;19.73;53.38
70839;DHT22;58464;52.298;4.852;2022-09-24T16:33:38;19.53;54.01
70839;DHT22;58464;52.298;4.852;2022-09-24T16:36:07;19.59;53.43
70839;DHT22;58464;52.298;4.852;2022-09-24T16:38:38;19.65;52.99
70839;DHT22;58464;52.298;4.852;2022-09-24T16:41:06;19.74;53.04
70839;DHT22;58464;52.298;4.852;2022-09-24T16:43:32;19.36;53.85
70839;DHT22;58464;52.298;4.852;2022-09-24T16:46:02;19.92;52.55
70839;DHT22;58464;52.298;4.852;2022-09-24T16:48:29;19.69;52.91
70839;DHT22;58464;52.298;4.852;2022-09-24T16:53:28;19.59;53.84
70839;DHT22;58464;52.298;4.852;2022-09-24T16:56:09;19.62;53.60
70839;DHT22;58464;52.298;4.852;2022-09-24T16:58:35;19.26;54.36
70839;DHT22;58464;52.298;4.852;2022-09-24T17:01:09;18.88;55.89
70839;DHT22;58464;52.298;4.852;2022-09-24T17:03:35;18.54;56.15
70839;DHT22;58464;52.298;4.852;2022-09-24T17:06:01;18.04;57.45
70839;DHT22;58464;52.298;4.852;2022-09-24T17:08:26;17.89;57.93
70839;DHT22;58464;52.298;4.852;2022-09-24T17:11:12;17.36;59.97
70839;DHT22;58464;52.298;4.852;2022-09-24T17:13:38;16.85;61.47
70839;DHT22;58464;52.298;4.852;2022-09-24T17:16:04;16.51;63.07
70839;DHT22;58464;52.298;4.852;2022-09-24T17:18:31;16.47;63.52
70839;DHT22;58464;52.298;4.852;2022-09-24T17:21:01;16.27;64.19
70839;DHT22;58464;52.298;4.852;2022-09-24T17:23:27;16.18;64.80
70839;DHT22;58464;52.298;4.852;2022-09-24T17:26:07;15.93;66.13
70839;DHT22;58464;52.298;4.852;2022-09-24T17:28:34;15.77;67.22
70839;DHT22;58464;52.298;4.852;2022-09-24T17:31:02;15.59;67.86
70839;DHT22;58464;52.298;4.852;2022-09-24T17:33:29;15.45;68.72
70839;DHT22;58464;52.298;4.852;2022-09-24T17:35:55;15.40;69.03
70839;DHT22;58464;52.298;4.852;2022-09-24T17:38:23;15.32;69.84
70839;DHT22;58464;52.298;4.852;2022-09-24T17:40:56;15.19;69.86
70839;DHT22;58464;52.298;4.852;2022-09-24T17:43:22;15.21;69.97
70839;DHT22;58464;52.298;4.852;2022-09-24T17:45:57;15.15;70.52
70839;DHT22;58464;52.298;4.852;2022-09-24T17:48:34;15.14;70.48
70839;DHT22;58464;52.298;4.852;2022-09-24T17:51:03;14.98;71.32
70839;DHT22;58464;52.298;4.852;2022-09-24T17:53:30;15.01;71.45
70839;DHT22;58464;52.298;4.852;2022-09-24T17:55:56;14.90;72.12
70839;DHT22;58464;52.298;4.852;2022-09-24T17:58:22;14.74;72.74
70839;DHT22;58464;52.298;4.852;2022-09-24T18:00:49;14.73;73.28